sensor_id;sensor_type;location;lat;lon;timestamp;P1;durP1;ratioP1;P2;durP2;ratioP2
59587;SDS011;45412;54.472;18.464;2023-11-19T00:01:23;34.10;;;16.70;;
59587;SDS011;45412;54.472;18.464;2023-11-19T00:04:10;35.10;;;15.10;;
59587;SDS011;45412;54.472;18.464;2023-11-19T00:06:59;30.90;;;15.50;;
59587;SDS011;45412;54.472;18.464;2023-11-19T00:09:51;31.30;;;14.80;;
59587;SDS011;45412;54.472;18.464;2023-11-19T00:12:43;31.30;;;13.70;;
59587;SDS011;45412;54.472;18.464;2023-11-19T00:15:32;28.70;;;13.50;;
59587;SDS011;45412;54.472;18.464;2023-11-19T00:18:20;31.50;;;12.90;;
59587;SDS011;45412;54.472;18.464;2023-11-19T00:21:09;27.30;;;13.40;;
59587;SDS011;45412;54.472;18.464;2023-11-19T00:23:57;33.10;;;15.30;;
59587;SDS011;45412;54.472;18.464;2023-11-19T00:26:46;36.70;;;16.40;;
59587;SDS011;45412;54.472;18.464;2023-11-19T00:29:33;33.00;;;14.60;;
59587;SDS011;45412;54.472;18.464;2023-11-19T00:32:22;32.10;;;14.10;;
59587;SDS011;45412;54.472;18.464;2023-11-19T00:35:11;32.80;;;16.20;;
59587;SDS011;45412;54.472;18.464;2023-11-19T00:38:01;32.00;;;13.80;;
59587;SDS011;45412;54.472;18.464;2023-11-19T00:40:50;28.00;;;12.90;;
59587;SDS011;45412;54.472;18.464;2023-11-19T00:43:38;29.00;;;14.20;;
59587;SDS011;45412;54.472;18.464;2023-11-19T00:46:26;28.10;;;12.60;;
59587;SDS011;45412;54.472;18.464;2023-11-19T00:49:14;34.20;;;15.20;;
59587;SDS011;45412;54.472;18.464;2023-11-19T00:52:03;30.50;;;13.80;;
59587;SDS011;45412;54.472;18.464;2023-11-19T00:54:51;27.80;;;12.70;;
59587;SDS011;45412;54.472;18.464;2023-11-19T00:57:39;30.40;;;14.40;;
59587;SDS011;45412;54.472;18.464;2023-11-19T01:00:28;37.90;;;15.10;;
59587;SDS011;45412;54.472;18.464;2023-11-19T01:03:16;26.30;;;12.70;;
59587;SDS011;45412;54.472;18.464;2023-11-19T01:06:04;28.20;;;13.60;;
59587;SDS011;45412;54.472;18.464;2023-11-19T01:08:52;28.90;;;12.50;;
59587;SDS011;45412;54.472;18.464;2023-11-19T01:11:40;29.00;;;13.60;;
59587;SDS011;45412;54.472;18.464;2023-11-19T01:14:29;27.20;;;12.50;;
59587;SDS011;45412;54.472;18.464;2023-11-19T01:17:17;23.30;;;10.70;;
59587;SDS011;45412;54.472;18.464;2023-11-19T01:20:05;24.20;;;10.60;;
59587;SDS011;45412;54.472;18.464;2023-11-19T01:22:59;33.30;;;14.80;;
59587;SDS011;45412;54.472;18.464;2023-11-19T01:25:47;31.10;;;14.30;;
59587;SDS011;45412;54.472;18.464;2023-11-19T01:28:36;31.80;;;13.60;;
59587;SDS011;45412;54.472;18.464;2023-11-19T01:31:38;35.30;;;14.10;;
59587;SDS011;45412;54.472;18.464;2023-11-19T01:34:26;32.40;;;14.70;;
59587;SDS011;45412;54.472;18.464;2023-11-19T01:37:14;25.50;;;12.20;;
59587;SDS011;45412;54.472;18.464;2023-11-19T01:40:02;26.80;;;11.40;;
59587;SDS011;45412;54.472;18.464;2023-11-19T01:42:55;27.70;;;11.70;;
59587;SDS011;45412;54.472;18.464;2023-11-19T01:45:43;22.90;;;11.40;;
59587;SDS011;45412;54.472;18.464;2023-11-19T01:48:34;30.60;;;14.20;;
59587;SDS011;45412;54.472;18.464;2023-11-19T01:51:23;30.50;;;14.20;;
59587;SDS011;45412;54.472;18.464;2023-11-19T01:54:12;32.60;;;14.70;;
59587;SDS011;45412;54.472;18.464;2023-11-19T01:57:00;31.10;;;13.50;;
59587;SDS011;45412;54.472;18.464;2023-11-19T01:59:49;29.50;;;12.90;;
59587;SDS011;45412;54.472;18.464;2023-11-19T02:02:41;36.30;;;15.50;;
59587;SDS011;45412;54.472;18.464;2023-11-19T02:05:31;26.90;;;12.20;;
59587;SDS011;45412;54.472;18.464;2023-11-19T02:08:20;29.80;;;14.60;;
59587;SDS011;45412;54.472;18.464;2023-11-19T02:11:08;32.00;;;12.70;;
59587;SDS011;45412;54.472;18.464;2023-11-19T02:13:56;28.70;;;14.50;;
59587;SDS011;45412;54.472;18.464;2023-11-19T02:16:44;23.10;;;10.80;;
59587;SDS011;45412;54.472;18.464;2023-11-19T02:19:32;32.50;;;12.80;;
59587;SDS011;45412;54.472;18.464;2023-11-19T02:22:19;28.40;;;12.00;;
59587;SDS011;45412;54.472;18.464;2023-11-19T02:25:09;28.00;;;12.90;;
59587;SDS011;45412;54.472;18.464;2023-11-19T02:28:04;26.20;;;12.20;;
59587;SDS011;45412;54.472;18.464;2023-11-19T02:30:53;25.30;;;13.00;;
59587;SDS011;45412;54.472;18.464;2023-11-19T02:33:40;26.50;;;13.00;;
59587;SDS011;45412;54.472;18.464;2023-11-19T02:36:28;25.90;;;11.60;;
59587;SDS011;45412;54.472;18.464;2023-11-19T02:39:16;25.70;;;12.10;;
59587;SDS011;45412;54.472;18.464;2023-11-19T02:42:09;23.40;;;11.30;;
59587;SDS011;45412;54.472;18.464;2023-11-19T02:44:57;20.60;;;9.90;;
59587;SDS011;45412;54.472;18.464;2023-11-19T02:47:45;23.50;;;10.90;;
59587;SDS011;45412;54.472;18.464;2023-11-19T02:50:33;22.20;;;9.50;;
59587;SDS011;45412;54.472;18.464;2023-11-19T02:53:20;26.20;;;11.30;;
59587;SDS011;45412;54.472;18.464;2023-11-19T02:56:10;20.90;;;10.40;;
59587;SDS011;45412;54.472;18.464;2023-11-19T02:59:13;24.30;;;11.50;;
59587;SDS011;45412;54.472;18.464;2023-11-19T03:02:14;20.00;;;9.40;;
59587;SDS011;45412;54.472;18.464;2023-11-19T03:05:04;21.80;;;9.90;;
59587;SDS011;45412;54.472;18.464;2023-11-19T03:07:52;21.50;;;8.50;;
59587;SDS011;45412;54.472;18.464;2023-11-19T03:10:40;24.20;;;10.80;;
59587;SDS011;45412;54.472;18.464;2023-11-19T03:13:27;20.90;;;10.20;;
59587;SDS011;45412;54.472;18.464;2023-11-19T03:16:15;20.70;;;9.40;;
59587;SDS011;45412;54.472;18.464;2023-11-19T03:19:04;21.90;;;9.40;;
59587;SDS011;45412;54.472;18.464;2023-11-19T03:21:54;19.60;;;9.50;;
59587;SDS011;45412;54.472;18.464;2023-11-19T03:24:42;20.80;;;8.40;;
59587;SDS011;45412;54.472;18.464;2023-11-19T03:27:29;24.30;;;10.50;;
59587;SDS011;45412;54.472;18.464;2023-11-19T03:30:17;21.70;;;8.70;;
59587;SDS011;45412;54.472;18.464;2023-11-19T03:33:05;20.40;;;9.10;;
59587;SDS011;45412;54.472;18.464;2023-11-19T03:35:54;19.30;;;8.90;;
59587;SDS011;45412;54.472;18.464;2023-11-19T03:38:43;22.00;;;9.50;;
59587;SDS011;45412;54.472;18.464;2023-11-19T03:41:31;20.40;;;9.40;;
59587;SDS011;45412;54.472;18.464;2023-11-19T03:44:22;20.40;;;8.70;;
59587;SDS011;45412;54.472;18.464;2023-11-19T03:47:10;21.10;;;9.00;;
59587;SDS011;45412;54.472;18.464;2023-11-19T03:49:58;20.90;;;9.80;;
59587;SDS011;45412;54.472;18.464;2023-11-19T03:52:47;21.30;;;10.50;;
59587;SDS011;45412;54.472;18.464;2023-11-19T03:55:36;22.50;;;10.10;;
59587;SDS011;45412;54.472;18.464;2023-11-19T03:58:24;25.50;;;11.00;;
59587;SDS011;45412;54.472;18.464;2023-11-19T04:01:12;21.20;;;10.30;;
59587;SDS011;45412;54.472;18.464;2023-11-19T04:04:03;22.50;;;10.70;;
59587;SDS011;45412;54.472;18.464;2023-11-19T04:06:51;23.70;;;9.90;;
59587;SDS011;45412;54.472;18.464;2023-11-19T04:09:39;21.60;;;10.10;;
59587;SDS011;45412;54.472;18.464;2023-11-19T04:12:27;24.60;;;11.40;;
59587;SDS011;45412;54.472;18.464;2023-11-19T04:15:15;24.20;;;10.70;;
59587;SDS011;45412;54.472;18.464;2023-11-19T04:18:03;21.30;;;9.90;;
59587;SDS011;45412;54.472;18.464;2023-11-19T04:20:51;24.30;;;12.20;;
59587;SDS011;45412;54.472;18.464;2023-11-19T04:23:38;23.70;;;10.60;;
59587;SDS011;45412;54.472;18.464;2023-11-19T04:26:26;26.80;;;11.50;;
59587;SDS011;45412;54.472;18.464;2023-11-19T04:29:16;25.80;;;12.00;;
59587;SDS011;45412;54.472;18.464;2023-11-19T04:32:05;23.20;;;11.40;;
59587;SDS011;45412;54.472;18.464;2023-11-19T04:34:53;20.80;;;9.70;;
59587;SDS011;45412;54.472;18.464;2023-11-19T04:37:41;22.50;;;9.60;;
59587;SDS011;45412;54.472;18.464;2023-11-19T04:40:29;25.80;;;12.30;;
59587;SDS011;45412;54.472;18.464;2023-11-19T04:43:18;25.10;;;10.50;;
59587;SDS011;45412;54.472;18.464;2023-11-19T04:46:09;22.80;;;10.90;;
59587;SDS011;45412;54.472;18.464;2023-11-19T04:48:57;25.90;;;12.60;;
59587;SDS011;45412;54.472;18.464;2023-11-19T04:51:45;24.10;;;12.60;;
59587;SDS011;45412;54.472;18.464;2023-11-19T04:54:40;24.70;;;11.40;;
59587;SDS011;45412;54.472;18.464;2023-11-19T04:57:30;21.70;;;9.10;;
59587;SDS011;45412;54.472;18.464;2023-11-19T05:00:20;21.00;;;9.60;;
59587;SDS011;45412;54.472;18.464;2023-11-19T05:03:09;22.10;;;10.80;;
59587;SDS011;45412;54.472;18.464;2023-11-19T05:05:57;20.30;;;8.90;;
59587;SDS011;45412;54.472;18.464;2023-11-19T05:08:46;21.00;;;9.50;;
59587;SDS011;45412;54.472;18.464;2023-11-19T05:11:34;22.50;;;10.00;;
59587;SDS011;45412;54.472;18.464;2023-11-19T05:14:22;18.40;;;8.50;;
59587;SDS011;45412;54.472;18.464;2023-11-19T05:17:11;19.60;;;8.80;;
59587;SDS011;45412;54.472;18.464;2023-11-19T05:19:59;19.80;;;9.00;;
59587;SDS011;45412;54.472;18.464;2023-11-19T05:22:47;20.10;;;8.50;;
59587;SDS011;45412;54.472;18.464;2023-11-19T05:25:36;23.00;;;9.10;;
59587;SDS011;45412;54.472;18.464;2023-11-19T05:28:24;20.20;;;10.20;;
59587;SDS011;45412;54.472;18.464;2023-11-19T05:31:14;21.70;;;10.20;;
59587;SDS011;45412;54.472;18.464;2023-11-19T05:34:02;21.60;;;9.50;;
59587;SDS011;45412;54.472;18.464;2023-11-19T05:36:50;18.50;;;9.20;;
59587;SDS011;45412;54.472;18.464;2023-11-19T05:39:38;21.40;;;8.90;;
59587;SDS011;45412;54.472;18.464;2023-11-19T05:42:25;22.40;;;9.70;;
59587;SDS011;45412;54.472;18.464;2023-11-19T05:45:15;23.80;;;11.30;;
59587;SDS011;45412;54.472;18.464;2023-11-19T05:48:02;24.20;;;11.60;;
59587;SDS011;45412;54.472;18.464;2023-11-19T05:50:52;20.40;;;9.70;;
59587;SDS011;45412;54.472;18.464;2023-11-19T05:53:41;22.80;;;10.10;;
59587;SDS011;45412;54.472;18.464;2023-11-19T05:56:29;23.70;;;11.10;;
59587;SDS011;45412;54.472;18.464;2023-11-19T05:59:20;20.60;;;10.50;;
59587;SDS011;45412;54.472;18.464;2023-11-19T06:02:10;20.70;;;9.90;;
59587;SDS011;45412;54.472;18.464;2023-11-19T06:04:58;19.60;;;9.00;;
59587;SDS011;45412;54.472;18.464;2023-11-19T06:07:46;23.80;;;10.60;;
59587;SDS011;45412;54.472;18.464;2023-11-19T06:10:34;22.40;;;9.40;;
59587;SDS011;45412;54.472;18.464;2023-11-19T06:13:22;21.10;;;10.20;;
59587;SDS011;45412;54.472;18.464;2023-11-19T06:16:12;22.50;;;10.70;;
59587;SDS011;45412;54.472;18.464;2023-11-19T06:19:00;22.00;;;10.80;;
59587;SDS011;45412;54.472;18.464;2023-11-19T06:21:48;23.20;;;10.40;;
59587;SDS011;45412;54.472;18.464;2023-11-19T06:24:37;22.20;;;10.60;;
59587;SDS011;45412;54.472;18.464;2023-11-19T06:27:31;20.50;;;10.40;;
59587;SDS011;45412;54.472;18.464;2023-11-19T06:30:19;18.80;;;8.00;;
59587;SDS011;45412;54.472;18.464;2023-11-19T06:33:08;20.10;;;9.90;;
59587;SDS011;45412;54.472;18.464;2023-11-19T06:35:56;18.90;;;9.50;;
59587;SDS011;45412;54.472;18.464;2023-11-19T06:38:43;21.40;;;10.10;;
59587;SDS011;45412;54.472;18.464;2023-11-19T06:41:31;21.80;;;11.30;;
59587;SDS011;45412;54.472;18.464;2023-11-19T06:44:19;25.70;;;10.80;;
59587;SDS011;45412;54.472;18.464;2023-11-19T06:47:06;19.90;;;8.40;;
59587;SDS011;45412;54.472;18.464;2023-11-19T06:49:55;21.20;;;9.40;;
59587;SDS011;45412;54.472;18.464;2023-11-19T06:52:43;18.90;;;9.40;;
59587;SDS011;45412;54.472;18.464;2023-11-19T06:55:30;21.00;;;10.20;;
59587;SDS011;45412;54.472;18.464;2023-11-19T06:58:19;20.50;;;10.00;;
59587;SDS011;45412;54.472;18.464;2023-11-19T07:01:07;20.10;;;8.70;;
59587;SDS011;45412;54.472;18.464;2023-11-19T07:03:55;19.10;;;9.10;;
59587;SDS011;45412;54.472;18.464;2023-11-19T07:06:45;19.00;;;9.10;;
59587;SDS011;45412;54.472;18.464;2023-11-19T07:09:33;18.60;;;9.20;;
59587;SDS011;45412;54.472;18.464;2023-11-19T07:12:21;17.20;;;8.20;;
59587;SDS011;45412;54.472;18.464;2023-11-19T07:15:09;19.10;;;8.70;;
59587;SDS011;45412;54.472;18.464;2023-11-19T07:17:58;18.70;;;9.10;;
59587;SDS011;45412;54.472;18.464;2023-11-19T07:20:49;21.40;;;9.40;;
59587;SDS011;45412;54.472;18.464;2023-11-19T07:23:37;19.60;;;9.30;;
59587;SDS011;45412;54.472;18.464;2023-11-19T07:26:25;19.00;;;9.60;;
59587;SDS011;45412;54.472;18.464;2023-11-19T07:29:14;18.50;;;8.30;;
59587;SDS011;45412;54.472;18.464;2023-11-19T07:32:08;19.10;;;9.40;;
59587;SDS011;45412;54.472;18.464;2023-11-19T07:34:59;18.90;;;8.50;;
59587;SDS011;45412;54.472;18.464;2023-11-19T07:37:47;15.70;;;7.70;;
59587;SDS011;45412;54.472;18.464;2023-11-19T07:40:35;18.60;;;8.80;;
59587;SDS011;45412;54.472;18.464;2023-11-19T07:43:23;19.90;;;9.20;;
59587;SDS011;45412;54.472;18.464;2023-11-19T07:46:11;16.20;;;7.50;;
59587;SDS011;45412;54.472;18.464;2023-11-19T07:49:00;19.50;;;8.80;;
59587;SDS011;45412;54.472;18.464;2023-11-19T07:51:50;19.40;;;9.60;;
59587;SDS011;45412;54.472;18.464;2023-11-19T07:54:38;19.30;;;9.10;;
59587;SDS011;45412;54.472;18.464;2023-11-19T07:57:25;18.90;;;9.20;;
59587;SDS011;45412;54.472;18.464;2023-11-19T08:00:15;18.40;;;8.40;;
59587;SDS011;45412;54.472;18.464;2023-11-19T08:03:04;18.40;;;9.30;;
59587;SDS011;45412;54.472;18.464;2023-11-19T08:05:55;19.50;;;9.10;;
59587;SDS011;45412;54.472;18.464;2023-11-19T08:08:45;21.10;;;9.80;;
59587;SDS011;45412;54.472;18.464;2023-11-19T08:11:33;17.10;;;8.90;;
59587;SDS011;45412;54.472;18.464;2023-11-19T08:14:21;20.10;;;9.20;;
59587;SDS011;45412;54.472;18.464;2023-11-19T08:17:09;17.00;;;8.90;;
59587;SDS011;45412;54.472;18.464;2023-11-19T08:19:57;17.80;;;8.10;;
59587;SDS011;45412;54.472;18.464;2023-11-19T08:22:45;17.70;;;9.50;;
59587;SDS011;45412;54.472;18.464;2023-11-19T08:25:32;17.00;;;8.60;;
59587;SDS011;45412;54.472;18.464;2023-11-19T08:28:24;17.30;;;8.30;;
59587;SDS011;45412;54.472;18.464;2023-11-19T08:31:12;17.70;;;8.40;;
59587;SDS011;45412;54.472;18.464;2023-11-19T08:34:01;19.40;;;8.90;;
59587;SDS011;45412;54.472;18.464;2023-11-19T08:36:50;20.50;;;10.30;;
59587;SDS011;45412;54.472;18.464;2023-11-19T08:39:40;19.70;;;9.10;;
59587;SDS011;45412;54.472;18.464;2023-11-19T08:42:29;19.50;;;8.30;;
59587;SDS011;45412;54.472;18.464;2023-11-19T08:45:17;19.40;;;10.00;;
59587;SDS011;45412;54.472;18.464;2023-11-19T08:48:05;19.20;;;10.10;;
59587;SDS011;45412;54.472;18.464;2023-11-19T08:50:53;19.70;;;9.00;;
59587;SDS011;45412;54.472;18.464;2023-11-19T08:53:41;19.50;;;9.60;;
59587;SDS011;45412;54.472;18.464;2023-11-19T08:56:29;21.00;;;9.20;;
59587;SDS011;45412;54.472;18.464;2023-11-19T08:59:20;20.90;;;9.60;;
59587;SDS011;45412;54.472;18.464;2023-11-19T09:02:08;17.70;;;8.80;;
59587;SDS011;45412;54.472;18.464;2023-11-19T09:04:56;20.10;;;10.20;;
59587;SDS011;45412;54.472;18.464;2023-11-19T09:07:44;16.80;;;8.20;;
59587;SDS011;45412;54.472;18.464;2023-11-19T09:10:32;17.90;;;8.80;;
59587;SDS011;45412;54.472;18.464;2023-11-19T09:13:20;18.80;;;9.50;;
59587;SDS011;45412;54.472;18.464;2023-11-19T09:16:08;17.10;;;8.80;;
59587;SDS011;45412;54.472;18.464;2023-11-19T09:18:56;15.60;;;8.30;;
59587;SDS011;45412;54.472;18.464;2023-11-19T09:21:45;17.70;;;8.60;;
59587;SDS011;45412;54.472;18.464;2023-11-19T09:24:32;15.20;;;7.80;;
59587;SDS011;45412;54.472;18.464;2023-11-19T09:27:20;15.30;;;7.40;;
59587;SDS011;45412;54.472;18.464;2023-11-19T09:30:09;15.60;;;6.90;;
59587;SDS011;45412;54.472;18.464;2023-11-19T09:32:57;14.00;;;6.90;;
59587;SDS011;45412;54.472;18.464;2023-11-19T09:35:46;14.60;;;7.30;;
59587;SDS011;45412;54.472;18.464;2023-11-19T09:38:34;13.00;;;6.90;;
59587;SDS011;45412;54.472;18.464;2023-11-19T09:41:25;14.10;;;7.60;;
59587;SDS011;45412;54.472;18.464;2023-11-19T09:44:15;15.10;;;7.70;;
59587;SDS011;45412;54.472;18.464;2023-11-19T09:47:06;16.50;;;7.60;;
59587;SDS011;45412;54.472;18.464;2023-11-19T09:49:55;21.10;;;9.50;;
59587;SDS011;45412;54.472;18.464;2023-11-19T09:52:46;17.60;;;8.80;;
59587;SDS011;45412;54.472;18.464;2023-11-19T09:55:35;20.20;;;10.00;;
59587;SDS011;45412;54.472;18.464;2023-11-19T09:58:23;19.50;;;9.60;;
59587;SDS011;45412;54.472;18.464;2023-11-19T10:01:11;20.30;;;9.50;;
59587;SDS011;45412;54.472;18.464;2023-11-19T10:04:02;24.60;;;10.50;;
59587;SDS011;45412;54.472;18.464;2023-11-19T10:06:51;18.70;;;8.90;;
59587;SDS011;45412;54.472;18.464;2023-11-19T10:09:40;20.20;;;11.10;;
59587;SDS011;45412;54.472;18.464;2023-11-19T10:12:28;19.90;;;10.20;;
59587;SDS011;45412;54.472;18.464;2023-11-19T10:15:23;18.80;;;9.70;;
59587;SDS011;45412;54.472;18.464;2023-11-19T10:18:14;18.60;;;9.40;;
59587;SDS011;45412;54.472;18.464;2023-11-19T10:21:02;28.50;;;13.90;;
59587;SDS011;45412;54.472;18.464;2023-11-19T10:23:56;22.10;;;9.50;;
59587;SDS011;45412;54.472;18.464;2023-11-19T10:26:46;22.60;;;10.70;;
59587;SDS011;45412;54.472;18.464;2023-11-19T10:29:36;21.80;;;11.80;;
59587;SDS011;45412;54.472;18.464;2023-11-19T10:32:25;23.50;;;11.90;;
59587;SDS011;45412;54.472;18.464;2023-11-19T10:35:14;22.10;;;10.30;;
59587;SDS011;45412;54.472;18.464;2023-11-19T10:38:13;23.70;;;11.70;;
59587;SDS011;45412;54.472;18.464;2023-11-19T10:41:05;25.20;;;12.20;;
59587;SDS011;45412;54.472;18.464;2023-11-19T10:43:54;20.90;;;9.90;;
59587;SDS011;45412;54.472;18.464;2023-11-19T10:46:42;20.90;;;9.40;;
59587;SDS011;45412;54.472;18.464;2023-11-19T10:49:30;22.40;;;10.50;;
59587;SDS011;45412;54.472;18.464;2023-11-19T10:52:18;24.00;;;11.30;;
59587;SDS011;45412;54.472;18.464;2023-11-19T10:55:09;22.70;;;11.50;;
59587;SDS011;45412;54.472;18.464;2023-11-19T10:58:03;26.60;;;12.90;;
59587;SDS011;45412;54.472;18.464;2023-11-19T11:00:57;25.30;;;11.20;;
59587;SDS011;45412;54.472;18.464;2023-11-19T11:03:47;24.50;;;12.10;;
59587;SDS011;45412;54.472;18.464;2023-11-19T11:06:36;23.70;;;11.10;;
59587;SDS011;45412;54.472;18.464;2023-11-19T11:09:26;25.40;;;13.20;;
59587;SDS011;45412;54.472;18.464;2023-11-19T11:12:15;29.10;;;13.30;;
59587;SDS011;45412;54.472;18.464;2023-11-19T11:15:05;27.80;;;13.80;;
59587;SDS011;45412;54.472;18.464;2023-11-19T11:17:57;27.10;;;12.80;;
59587;SDS011;45412;54.472;18.464;2023-11-19T11:21:16;28.20;;;13.40;;
59587;SDS011;45412;54.472;18.464;2023-11-19T11:40:03;27.70;;;13.80;;
59587;SDS011;45412;54.472;18.464;2023-11-19T11:42:58;33.30;;;14.70;;
59587;SDS011;45412;54.472;18.464;2023-11-19T11:45:46;32.80;;;15.00;;
59587;SDS011;45412;54.472;18.464;2023-11-19T11:48:35;30.90;;;13.90;;
59587;SDS011;45412;54.472;18.464;2023-11-19T11:51:59;34.00;;;15.30;;
59587;SDS011;45412;54.472;18.464;2023-11-19T11:54:48;32.90;;;15.90;;
59587;SDS011;45412;54.472;18.464;2023-11-19T11:57:37;35.30;;;14.90;;
59587;SDS011;45412;54.472;18.464;2023-11-19T12:03:21;36.50;;;15.80;;
59587;SDS011;45412;54.472;18.464;2023-11-19T12:06:10;33.50;;;16.00;;
59587;SDS011;45412;54.472;18.464;2023-11-19T12:09:01;32.50;;;14.90;;
59587;SDS011;45412;54.472;18.464;2023-11-19T12:11:49;36.30;;;16.20;;
59587;SDS011;45412;54.472;18.464;2023-11-19T12:17:48;39.80;;;15.70;;
59587;SDS011;45412;54.472;18.464;2023-11-19T12:20:38;41.00;;;15.80;;
59587;SDS011;45412;54.472;18.464;2023-11-19T12:23:32;33.40;;;15.90;;
59587;SDS011;45412;54.472;18.464;2023-11-19T12:26:40;35.50;;;15.20;;
59587;SDS011;45412;54.472;18.464;2023-11-19T12:29:28;36.80;;;15.50;;
59587;SDS011;45412;54.472;18.464;2023-11-19T12:32:43;34.30;;;14.70;;
59587;SDS011;45412;54.472;18.464;2023-11-19T12:35:33;34.80;;;15.20;;
59587;SDS011;45412;54.472;18.464;2023-11-19T12:38:29;34.20;;;16.30;;
59587;SDS011;45412;54.472;18.464;2023-11-19T12:41:17;40.40;;;17.70;;
59587;SDS011;45412;54.472;18.464;2023-11-19T12:44:10;37.20;;;15.00;;
59587;SDS011;45412;54.472;18.464;2023-11-19T12:49:56;39.40;;;18.40;;
59587;SDS011;45412;54.472;18.464;2023-11-19T12:52:56;33.60;;;15.00;;
59587;SDS011;45412;54.472;18.464;2023-11-19T12:55:45;39.30;;;16.90;;
59587;SDS011;45412;54.472;18.464;2023-11-19T12:58:34;42.00;;;18.80;;
59587;SDS011;45412;54.472;18.464;2023-11-19T13:01:26;35.90;;;14.60;;
59587;SDS011;45412;54.472;18.464;2023-11-19T13:04:20;39.80;;;16.90;;
59587;SDS011;45412;54.472;18.464;2023-11-19T13:07:08;41.40;;;17.20;;
59587;SDS011;45412;54.472;18.464;2023-11-19T13:10:02;40.90;;;18.90;;
59587;SDS011;45412;54.472;18.464;2023-11-19T13:13:19;44.30;;;18.20;;
59587;SDS011;45412;54.472;18.464;2023-11-19T13:16:07;43.00;;;17.80;;
59587;SDS011;45412;54.472;18.464;2023-11-19T13:18:57;42.50;;;18.00;;
59587;SDS011;45412;54.472;18.464;2023-11-19T13:21:47;40.90;;;17.30;;
59587;SDS011;45412;54.472;18.464;2023-11-19T13:24:35;46.50;;;18.60;;
59587;SDS011;45412;54.472;18.464;2023-11-19T13:27:23;45.30;;;18.40;;
59587;SDS011;45412;54.472;18.464;2023-11-19T13:30:12;44.80;;;19.00;;
59587;SDS011;45412;54.472;18.464;2023-11-19T13:33:04;44.00;;;18.30;;
59587;SDS011;45412;54.472;18.464;2023-11-19T13:35:52;44.90;;;17.60;;
59587;SDS011;45412;54.472;18.464;2023-11-19T13:38:40;46.90;;;18.90;;
59587;SDS011;45412;54.472;18.464;2023-11-19T13:41:34;41.00;;;16.70;;
59587;SDS011;45412;54.472;18.464;2023-11-19T13:44:22;44.10;;;19.90;;
59587;SDS011;45412;54.472;18.464;2023-11-19T13:47:13;43.80;;;19.10;;
59587;SDS011;45412;54.472;18.464;2023-11-19T13:50:01;50.20;;;20.20;;
59587;SDS011;45412;54.472;18.464;2023-11-19T13:52:49;42.70;;;16.60;;
59587;SDS011;45412;54.472;18.464;2023-11-19T13:55:37;43.10;;;18.10;;
59587;SDS011;45412;54.472;18.464;2023-11-19T13:58:24;46.30;;;18.90;;
59587;SDS011;45412;54.472;18.464;2023-11-19T14:01:12;47.30;;;20.40;;
59587;SDS011;45412;54.472;18.464;2023-11-19T14:04:00;45.60;;;19.80;;
59587;SDS011;45412;54.472;18.464;2023-11-19T14:06:48;48.70;;;20.00;;
59587;SDS011;45412;54.472;18.464;2023-11-19T14:09:36;47.50;;;18.90;;
59587;SDS011;45412;54.472;18.464;2023-11-19T14:12:24;45.40;;;19.00;;
59587;SDS011;45412;54.472;18.464;2023-11-19T14:15:13;41.50;;;17.20;;
59587;SDS011;45412;54.472;18.464;2023-11-19T14:18:01;49.80;;;19.80;;
59587;SDS011;45412;54.472;18.464;2023-11-19T14:20:50;46.00;;;19.30;;
59587;SDS011;45412;54.472;18.464;2023-11-19T14:23:37;49.70;;;20.00;;
59587;SDS011;45412;54.472;18.464;2023-11-19T14:26:25;45.20;;;19.70;;
59587;SDS011;45412;54.472;18.464;2023-11-19T14:29:14;46.20;;;18.60;;
59587;SDS011;45412;54.472;18.464;2023-11-19T14:32:03;41.70;;;17.90;;
59587;SDS011;45412;54.472;18.464;2023-11-19T14:34:52;42.60;;;16.60;;
59587;SDS011;45412;54.472;18.464;2023-11-19T14:37:40;45.50;;;18.30;;
59587;SDS011;45412;54.472;18.464;2023-11-19T14:40:28;44.70;;;17.70;;
59587;SDS011;45412;54.472;18.464;2023-11-19T14:43:18;47.10;;;18.80;;
59587;SDS011;45412;54.472;18.464;2023-11-19T14:46:06;49.70;;;18.00;;
59587;SDS011;45412;54.472;18.464;2023-11-19T14:48:54;42.20;;;18.00;;
59587;SDS011;45412;54.472;18.464;2023-11-19T14:51:42;38.60;;;17.90;;
59587;SDS011;45412;54.472;18.464;2023-11-19T14:54:31;39.20;;;17.50;;
59587;SDS011;45412;54.472;18.464;2023-11-19T14:57:19;45.00;;;19.10;;
59587;SDS011;45412;54.472;18.464;2023-11-19T15:00:07;40.30;;;15.70;;
59587;SDS011;45412;54.472;18.464;2023-11-19T15:03:00;39.40;;;16.10;;
59587;SDS011;45412;54.472;18.464;2023-11-19T15:05:49;39.70;;;16.70;;
59587;SDS011;45412;54.472;18.464;2023-11-19T15:08:38;43.30;;;18.40;;
59587;SDS011;45412;54.472;18.464;2023-11-19T15:11:26;40.10;;;15.50;;
59587;SDS011;45412;54.472;18.464;2023-11-19T15:14:14;42.60;;;17.90;;
59587;SDS011;45412;54.472;18.464;2023-11-19T15:17:04;40.90;;;16.90;;
59587;SDS011;45412;54.472;18.464;2023-11-19T15:19:54;36.30;;;17.00;;
59587;SDS011;45412;54.472;18.464;2023-11-19T15:22:42;42.60;;;17.60;;
59587;SDS011;45412;54.472;18.464;2023-11-19T15:25:30;40.20;;;16.60;;
59587;SDS011;45412;54.472;18.464;2023-11-19T15:28:18;40.70;;;17.10;;
59587;SDS011;45412;54.472;18.464;2023-11-19T15:31:06;39.50;;;17.30;;
59587;SDS011;45412;54.472;18.464;2023-11-19T15:33:55;36.90;;;15.60;;
59587;SDS011;45412;54.472;18.464;2023-11-19T15:36:43;34.90;;;16.00;;
59587;SDS011;45412;54.472;18.464;2023-11-19T15:39:32;34.40;;;16.40;;
59587;SDS011;45412;54.472;18.464;2023-11-19T15:42:21;36.00;;;15.70;;
59587;SDS011;45412;54.472;18.464;2023-11-19T15:45:09;40.40;;;15.60;;
59587;SDS011;45412;54.472;18.464;2023-11-19T15:47:59;39.20;;;15.30;;
59587;SDS011;45412;54.472;18.464;2023-11-19T15:50:46;34.20;;;13.80;;
59587;SDS011;45412;54.472;18.464;2023-11-19T15:53:35;32.40;;;14.60;;
59587;SDS011;45412;54.472;18.464;2023-11-19T15:56:22;30.00;;;13.00;;
59587;SDS011;45412;54.472;18.464;2023-11-19T15:59:11;37.90;;;16.10;;
59587;SDS011;45412;54.472;18.464;2023-11-19T16:01:59;28.30;;;11.60;;
59587;SDS011;45412;54.472;18.464;2023-11-19T16:04:47;40.60;;;17.40;;
59587;SDS011;45412;54.472;18.464;2023-11-19T16:07:36;36.30;;;14.30;;
59587;SDS011;45412;54.472;18.464;2023-11-19T16:10:24;31.10;;;12.90;;
59587;SDS011;45412;54.472;18.464;2023-11-19T16:13:13;38.70;;;16.20;;
59587;SDS011;45412;54.472;18.464;2023-11-19T16:16:01;35.30;;;13.90;;
59587;SDS011;45412;54.472;18.464;2023-11-19T16:18:49;37.90;;;14.60;;
59587;SDS011;45412;54.472;18.464;2023-11-19T16:21:37;32.20;;;13.90;;
59587;SDS011;45412;54.472;18.464;2023-11-19T16:24:24;37.60;;;15.00;;
59587;SDS011;45412;54.472;18.464;2023-11-19T16:27:13;36.60;;;14.60;;
59587;SDS011;45412;54.472;18.464;2023-11-19T16:30:05;37.50;;;15.00;;
59587;SDS011;45412;54.472;18.464;2023-11-19T16:32:58;36.70;;;16.10;;
59587;SDS011;45412;54.472;18.464;2023-11-19T16:35:47;35.80;;;15.60;;
59587;SDS011;45412;54.472;18.464;2023-11-19T16:38:36;33.70;;;14.20;;
59587;SDS011;45412;54.472;18.464;2023-11-19T16:41:24;29.80;;;12.70;;
59587;SDS011;45412;54.472;18.464;2023-11-19T16:44:15;32.80;;;13.80;;
59587;SDS011;45412;54.472;18.464;2023-11-19T16:47:03;31.60;;;14.30;;